createdAt,value
2023-04-09T00:00:12.650Z,99915.41
2023-04-09T00:02:44.622Z,99925.72
2023-04-09T00:05:13.113Z,99918.34
2023-04-09T00:07:44.380Z,99918.97
2023-04-09T00:10:13.186Z,99913.53
2023-04-09T00:12:41.430Z,99921.03
2023-04-09T00:15:15.033Z,99921.09
2023-04-09T00:17:50.720Z,99913.97
2023-04-09T00:20:19.137Z,99913.41
2023-04-09T00:22:47.144Z,99919.84
2023-04-09T00:25:15.739Z,99917.34
2023-04-09T00:27:43.916Z,99909.13
2023-04-09T00:30:13.137Z,99919.78
2023-04-09T00:32:43.064Z,99911.09
2023-04-09T00:35:12.983Z,99907.78
2023-04-09T00:37:41.264Z,99911.22
2023-04-09T00:40:10.237Z,99905.56
2023-04-09T00:42:38.849Z,99910.16
2023-04-09T00:45:08.092Z,99899.38
2023-04-09T00:47:37.189Z,99909.81
2023-04-09T00:50:05.627Z,99904.44
2023-04-09T00:52:35.371Z,99899.50
2023-04-09T00:55:06.596Z,99903.00
2023-04-09T00:57:36.091Z,99896.66
2023-04-09T01:00:07.328Z,99888.72
2023-04-09T01:02:36.211Z,99894.56
2023-04-09T01:05:05.009Z,99892.56
2023-04-09T01:07:44.641Z,99889.19
2023-04-09T01:10:21.615Z,99887.28
2023-04-09T01:13:12.803Z,99890.06
2023-04-09T01:15:48.201Z,99889.72
2023-04-09T01:18:23.736Z,99884.72
2023-04-09T01:20:59.773Z,99888.78
2023-04-09T01:23:39.168Z,99892.91
2023-04-09T01:26:16.925Z,99894.47
2023-04-09T01:28:48.905Z,99899.69
2023-04-09T01:31:21.425Z,99904.94
2023-04-09T01:33:49.978Z,99901.03
2023-04-09T01:36:18.582Z,99900.41
2023-04-09T01:38:50.523Z,99906.31
2023-04-09T01:41:21.986Z,99913.63
2023-04-09T01:43:53.356Z,99911.66
2023-04-09T01:46:23.038Z,99914.50
2023-04-09T01:48:53.105Z,99919.78
2023-04-09T01:51:21.562Z,99913.91
2023-04-09T01:53:50.265Z,99909.00
2023-04-09T01:56:18.292Z,99914.66
2023-04-09T01:58:47.650Z,99921.59
2023-04-09T02:01:24.259Z,99913.31
2023-04-09T02:03:56.488Z,99915.31
2023-04-09T02:06:31.188Z,99914.50
2023-04-09T02:09:01.692Z,99923.25
2023-04-09T02:11:31.215Z,99913.59
2023-04-09T02:13:59.822Z,99921.38
2023-04-09T02:16:31.997Z,99917.06
2023-04-09T02:19:01.660Z,99912.44
2023-04-09T02:21:30.644Z,99918.34
2023-04-09T02:23:58.848Z,99913.88
2023-04-09T02:26:26.980Z,99918.34
2023-04-09T02:28:55.543Z,99915.03
2023-04-09T02:31:24.108Z,99919.59
2023-04-09T02:33:54.404Z,99922.13
2023-04-09T02:36:22.595Z,99913.47
2023-04-09T02:38:50.929Z,99915.25
2023-04-09T02:41:19.221Z,99913.47
2023-04-09T02:43:47.325Z,99911.47
2023-04-09T02:46:15.662Z,99913.97
2023-04-09T02:48:43.813Z,99919.19
2023-04-09T02:51:13.682Z,99920.03
2023-04-09T02:53:41.721Z,99917.13
2023-04-09T02:56:09.834Z,99910.50
2023-04-09T02:58:38.298Z,99914.78
2023-04-09T03:01:06.793Z,99909.00
2023-04-09T03:03:34.949Z,99909.25
2023-04-09T03:06:03.570Z,99905.25
2023-04-09T03:08:34.269Z,99908.53
2023-04-09T03:11:02.906Z,99910.25
2023-04-09T03:13:31.286Z,99910.69
2023-04-09T03:15:59.807Z,99906.47
2023-04-09T03:18:29.139Z,99901.28
2023-04-09T03:20:57.338Z,99899.31
2023-04-09T03:23:25.495Z,99899.78
2023-04-09T03:26:03.453Z,99892.50
2023-04-09T03:28:31.882Z,99901.47
2023-04-09T03:31:00.255Z,99893.84
2023-04-09T03:33:28.631Z,99892.03
2023-04-09T03:35:56.949Z,99890.63
2023-04-09T03:38:25.171Z,99887.59
2023-04-09T03:40:54.955Z,99892.59
2023-04-09T03:43:24.814Z,99886.53
2023-04-09T03:45:52.866Z,99886.00
2023-04-09T03:48:20.911Z,99886.13
2023-04-09T03:50:49.450Z,99889.50
2023-04-09T03:53:17.420Z,99893.00
2023-04-09T03:55:45.535Z,99886.66
2023-04-09T03:58:13.640Z,99886.88
2023-04-09T04:00:43.611Z,99893.13
2023-04-09T04:03:14.833Z,99890.94
2023-04-09T04:05:43.336Z,99894.06
2023-04-09T04:08:11.415Z,99893.50
2023-04-09T04:10:39.605Z,99893.78
2023-04-09T04:13:08.601Z,99894.78
2023-04-09T04:15:42.938Z,99893.13
2023-04-09T04:18:11.298Z,99896.66
2023-04-09T04:20:40.176Z,99887.84
2023-04-09T04:23:08.255Z,99898.47
2023-04-09T04:25:36.731Z,99893.25
2023-04-09T04:28:05.153Z,99884.75
2023-04-09T04:30:33.335Z,99889.63
2023-04-09T04:33:03.056Z,99890.22
2023-04-09T04:35:31.608Z,99893.06
2023-04-09T04:37:59.813Z,99892.94
2023-04-09T04:40:28.620Z,99897.53
2023-04-09T04:42:56.763Z,99890.47
2023-04-09T04:45:25.429Z,99899.06
2023-04-09T04:47:53.793Z,99899.66
2023-04-09T04:50:23.404Z,99900.50
2023-04-09T04:52:51.746Z,99899.84
2023-04-09T04:55:19.794Z,99895.34
2023-04-09T04:57:47.850Z,99905.81
2023-04-09T05:00:16.432Z,99906.75
2023-04-09T05:02:44.706Z,99910.06
2023-04-09T05:05:12.889Z,99903.91
2023-04-09T05:07:43.030Z,99909.69
2023-04-09T05:10:11.779Z,99906.09
2023-04-09T05:12:39.888Z,99912.94
2023-04-09T05:15:09.242Z,99905.84
2023-04-09T05:17:37.697Z,99911.16
2023-04-09T05:20:06.603Z,99904.59
2023-04-09T05:22:34.705Z,99904.66
2023-04-09T05:25:04.986Z,99908.97
2023-04-09T05:27:33.259Z,99913.31
2023-04-09T05:30:01.463Z,99904.66
2023-04-09T05:32:29.852Z,99916.81
2023-04-09T05:35:01.946Z,99910.56
2023-04-09T05:37:30.238Z,99911.28
2023-04-09T05:39:58.542Z,99911.25
2023-04-09T05:42:28.659Z,99910.88
2023-04-09T05:44:57.183Z,99911.88
2023-04-09T05:47:25.583Z,99912.78
2023-04-09T05:49:53.809Z,99910.84
2023-04-09T05:52:22.157Z,99913.41
2023-04-09T05:54:50.394Z,99926.25
2023-04-09T05:57:18.718Z,99925.53
2023-04-09T05:59:48.905Z,99920.91
2023-04-09T06:02:17.126Z,99916.22
2023-04-09T06:04:45.817Z,99919.56
2023-04-09T06:07:14.264Z,99932.09
2023-04-09T06:09:45.267Z,99929.19
2023-04-09T06:12:13.331Z,99919.41
2023-04-09T06:14:41.806Z,99925.97
2023-04-09T06:17:11.300Z,99920.81
2023-04-09T06:19:39.305Z,99924.06
2023-04-09T06:22:07.597Z,99924.50
2023-04-09T06:24:35.750Z,99920.34
2023-04-09T06:27:04.129Z,99924.69
2023-04-09T06:29:32.137Z,99928.75
2023-04-09T06:32:00.530Z,99925.19
2023-04-09T06:34:30.068Z,99932.31
2023-04-09T06:36:58.330Z,99931.31
2023-04-09T06:39:26.741Z,99937.56
2023-04-09T06:41:54.949Z,99927.66
2023-04-09T06:44:24.473Z,99935.56
2023-04-09T06:46:52.970Z,99935.34
2023-04-09T06:49:21.442Z,99941.94
2023-04-09T06:51:53.618Z,99943.22
2023-04-09T06:54:22.089Z,99935.94
2023-04-09T06:56:52.702Z,99941.69
2023-04-09T06:59:21.070Z,99933.28
2023-04-09T07:01:50.753Z,99935.88
2023-04-09T07:04:20.362Z,99929.47
2023-04-09T07:06:48.660Z,99934.50
2023-04-09T07:09:19.239Z,99932.88
2023-04-09T07:11:47.738Z,99935.84
2023-04-09T07:14:15.783Z,99932.06
2023-04-09T07:16:46.558Z,99935.38
2023-04-09T07:19:15.018Z,99932.19
2023-04-09T07:21:45.768Z,99935.00
2023-04-09T07:24:13.919Z,99936.94
2023-04-09T07:26:43.966Z,99929.44
2023-04-09T07:29:12.373Z,99928.84
2023-04-09T07:31:40.678Z,99922.16
2023-04-09T07:34:09.259Z,99920.56
2023-04-09T07:36:37.442Z,99927.72
2023-04-09T07:39:05.764Z,99932.94
2023-04-09T07:41:34.368Z,99932.66
2023-04-09T07:44:04.169Z,99923.19
2023-04-09T07:46:32.631Z,99926.53
2023-04-09T07:49:01.561Z,99931.28
2023-04-09T07:51:31.484Z,99927.56
2023-04-09T07:53:59.923Z,99928.22
2023-04-09T07:56:28.132Z,99928.97
2023-04-09T07:58:56.462Z,99927.88
2023-04-09T08:01:28.781Z,99926.94
2023-04-09T08:03:58.109Z,99924.16
2023-04-09T08:06:27.420Z,99928.13
2023-04-09T08:08:55.697Z,99929.88
2023-04-09T08:11:26.135Z,99932.44
2023-04-09T08:13:54.456Z,99932.13
2023-04-09T08:16:24.590Z,99933.38
2023-04-09T08:18:56.406Z,99929.00
2023-04-09T08:21:25.056Z,99931.38
2023-04-09T08:23:53.821Z,99939.75
2023-04-09T08:26:22.604Z,99938.41
2023-04-09T08:28:54.230Z,99934.31
2023-04-09T08:31:22.784Z,99940.19
2023-04-09T08:33:53.748Z,99928.72
2023-04-09T08:36:23.812Z,99944.47
2023-04-09T08:38:53.456Z,99935.50
2023-04-09T08:41:24.851Z,99947.56
2023-04-09T08:43:58.223Z,99949.59
2023-04-09T08:46:28.161Z,99946.50
2023-04-09T08:48:57.289Z,99948.88
2023-04-09T08:51:27.032Z,99948.72
2023-04-09T08:54:00.789Z,99949.66
2023-04-09T08:56:32.609Z,99950.66
2023-04-09T08:59:00.703Z,99948.63
2023-04-09T09:01:32.880Z,99943.28
2023-04-09T09:04:04.119Z,99940.03
2023-04-09T09:06:37.301Z,99940.72
2023-04-09T09:09:08.794Z,99936.09
2023-04-09T09:11:38.110Z,99946.66
2023-04-09T09:14:08.280Z,99938.38
2023-04-09T09:16:40.338Z,99933.66
2023-04-09T09:19:08.910Z,99945.50
2023-04-09T09:21:38.828Z,99946.72
2023-04-09T09:24:19.291Z,99943.94
2023-04-09T09:26:47.879Z,99944.28
2023-04-09T09:29:16.371Z,99938.41
2023-04-09T09:31:49.666Z,99944.00
2023-04-09T09:34:20.059Z,99940.13
2023-04-09T09:36:50.020Z,99939.06
2023-04-09T09:39:18.545Z,99928.78
2023-04-09T09:41:48.951Z,99933.31
2023-04-09T09:44:32.884Z,99935.88
2023-04-09T09:47:02.279Z,99928.09
2023-04-09T09:49:31.697Z,99939.59
2023-04-09T09:52:03.189Z,99928.38
2023-04-09T09:54:37.056Z,99929.44
2023-04-09T09:57:08.954Z,99916.91
2023-04-09T09:59:41.946Z,99927.09
2023-04-09T10:02:20.150Z,99931.06
2023-04-09T10:04:52.999Z,99938.53
2023-04-09T10:07:24.231Z,99933.91
2023-04-09T10:09:54.153Z,99929.31
2023-04-09T10:12:24.906Z,99923.53
2023-04-09T10:14:54.532Z,99932.81
2023-04-09T10:17:22.989Z,99931.00
2023-04-09T10:20:00.752Z,99928.06
2023-04-09T10:22:35.186Z,99925.41
2023-04-09T10:25:05.155Z,99925.78
2023-04-09T10:27:33.755Z,99926.06
2023-04-09T10:30:03.143Z,99920.84
2023-04-09T10:32:37.476Z,99922.38
2023-04-09T10:35:07.109Z,99920.56
2023-04-09T10:37:37.544Z,99919.63
2023-04-09T10:40:09.625Z,99915.63
2023-04-09T10:42:42.338Z,99910.97
2023-04-09T10:45:12.131Z,99923.16
2023-04-09T10:47:44.259Z,99925.91
2023-04-09T10:50:20.296Z,99913.28
2023-04-09T10:52:54.518Z,99925.25
2023-04-09T10:55:34.562Z,99918.97
2023-04-09T10:58:04.245Z,99913.56
2023-04-09T11:00:32.886Z,99913.19
2023-04-09T11:03:24.735Z,99913.25
2023-04-09T11:06:01.194Z,99914.88
2023-04-09T11:08:35.247Z,99914.41
2023-04-09T11:11:03.829Z,99913.78
2023-04-09T11:13:37.306Z,99916.59
2023-04-09T11:16:07.432Z,99909.47
2023-04-09T11:18:37.396Z,99908.91
2023-04-09T11:21:06.195Z,99906.81
2023-04-09T11:23:36.191Z,99903.47
2023-04-09T11:26:05.531Z,99906.72
2023-04-09T11:28:36.452Z,99905.47
2023-04-09T11:31:07.428Z,99896.34
2023-04-09T11:33:35.965Z,99902.88
2023-04-09T11:36:06.928Z,99897.94
2023-04-09T11:38:39.376Z,99902.19
2023-04-09T11:41:12.782Z,99903.22
2023-04-09T11:43:42.022Z,99907.59
2023-04-09T11:46:10.632Z,99901.28
2023-04-09T11:48:38.940Z,99906.44
2023-04-09T11:51:07.511Z,99911.91
2023-04-09T11:53:38.791Z,99898.19
2023-04-09T11:56:07.485Z,99900.75
2023-04-09T11:58:36.938Z,99905.59
2023-04-09T12:01:05.306Z,99905.78
2023-04-09T12:03:34.192Z,99898.31
2023-04-09T12:06:05.189Z,99895.97
2023-04-09T12:08:38.102Z,99889.09
2023-04-09T12:11:12.145Z,99897.25
2023-04-09T12:13:43.614Z,99887.56
2023-04-09T12:16:13.321Z,99888.22
2023-04-09T12:18:41.982Z,99891.81
2023-04-09T12:21:10.489Z,99887.97
2023-04-09T12:23:40.080Z,99884.34
2023-04-09T12:26:08.418Z,99884.25
2023-04-09T12:28:36.593Z,99889.66
2023-04-09T12:31:05.169Z,99882.59
2023-04-09T12:33:34.196Z,99877.25
2023-04-09T12:36:02.952Z,99871.19
2023-04-09T12:38:31.372Z,99863.72
2023-04-09T12:41:01.455Z,99873.84
2023-04-09T12:43:29.558Z,99873.97
2023-04-09T12:45:58.226Z,99867.97
2023-04-09T12:48:26.698Z,99868.22
2023-04-09T12:50:54.925Z,99862.63
2023-04-09T12:53:23.134Z,99862.13
2023-04-09T12:55:51.226Z,99856.88
2023-04-09T12:58:21.197Z,99856.94
2023-04-09T13:00:49.843Z,99857.53
2023-04-09T13:03:18.131Z,99853.16
2023-04-09T13:05:47.422Z,99853.47
2023-04-09T13:08:15.766Z,99850.41
2023-04-09T13:10:44.210Z,99845.19
2023-04-09T13:13:13.204Z,99842.91
2023-04-09T13:15:45.286Z,99836.06
2023-04-09T13:18:14.500Z,99834.56
2023-04-09T13:20:43.296Z,99838.72
2023-04-09T13:23:11.597Z,99833.34
2023-04-09T13:25:40.428Z,99824.38
2023-04-09T13:28:09.064Z,99820.53
2023-04-09T13:30:37.626Z,99816.47
2023-04-09T13:33:07.262Z,99819.78
2023-04-09T13:35:35.625Z,99820.06
2023-04-09T13:38:03.955Z,99817.78
2023-04-09T13:40:32.299Z,99812.53
2023-04-09T13:43:00.697Z,99810.63
2023-04-09T13:45:28.767Z,99816.25
2023-04-09T13:47:57.037Z,99805.97
2023-04-09T13:50:26.940Z,99810.19
2023-04-09T13:52:56.408Z,99806.84
2023-04-09T13:55:24.575Z,99801.63
2023-04-09T13:57:52.758Z,99808.19
2023-04-09T14:00:22.307Z,99807.09
2023-04-09T14:02:51.304Z,99797.97
2023-04-09T14:05:20.007Z,99791.44
2023-04-09T14:07:49.587Z,99772.06
2023-04-09T14:10:17.983Z,99799.34
2023-04-09T14:12:46.209Z,99787.03
2023-04-09T14:15:16.099Z,99781.47
2023-04-09T14:17:45.389Z,99784.44
2023-04-09T14:20:13.869Z,99767.41
2023-04-09T14:22:43.274Z,99769.44
2023-04-09T14:25:13.763Z,99776.81
2023-04-09T14:27:42.179Z,99775.31
2023-04-09T14:30:12.230Z,99769.44
2023-04-09T14:32:40.609Z,99776.88
2023-04-09T14:35:09.358Z,99771.72
2023-04-09T14:37:39.114Z,99769.28
2023-04-09T14:40:08.901Z,99771.69
2023-04-09T14:42:39.587Z,99776.31
2023-04-09T14:45:08.403Z,99771.44
2023-04-09T14:47:36.688Z,99763.47
2023-04-09T14:50:05.014Z,99765.25
2023-04-09T14:52:33.084Z,99766.38
2023-04-09T14:55:01.310Z,99764.91
2023-04-09T14:57:29.664Z,99766.25
2023-04-09T14:59:59.910Z,99760.41
2023-04-09T15:02:28.644Z,99763.69
2023-04-09T15:04:58.460Z,99760.59
2023-04-09T15:07:26.771Z,99753.19
2023-04-09T15:09:55.134Z,99754.84
2023-04-09T15:12:23.763Z,99757.25
2023-04-09T15:14:51.782Z,99751.41
2023-04-09T15:17:21.522Z,99755.16
2023-04-09T15:19:49.629Z,99753.66
2023-04-09T15:22:18.057Z,99758.06
2023-04-09T15:24:46.463Z,99752.84
2023-04-09T15:27:14.953Z,99750.31
2023-04-09T15:29:43.424Z,99752.84
2023-04-09T15:32:11.590Z,99744.06
2023-04-09T15:34:41.568Z,99746.09
2023-04-09T15:37:09.907Z,99737.97
2023-04-09T15:39:38.097Z,99736.72
2023-04-09T15:42:08.766Z,99737.31
2023-04-09T15:44:39.295Z,99738.88
2023-04-09T15:47:07.635Z,99728.78
2023-04-09T15:49:37.065Z,99729.28
2023-04-09T15:52:07.222Z,99734.91
2023-04-09T15:54:35.307Z,99726.22
2023-04-09T15:57:04.414Z,99723.19
2023-04-09T15:59:32.656Z,99732.06
2023-04-09T16:02:00.970Z,99736.69
2023-04-09T16:04:29.251Z,99727.53
2023-04-09T16:06:57.767Z,99729.72
2023-04-09T16:09:28.482Z,99718.75
2023-04-09T16:11:57.948Z,99722.41
2023-04-09T16:14:26.230Z,99722.53
2023-04-09T16:16:54.650Z,99725.78
2023-04-09T16:19:24.722Z,99717.19
2023-04-09T16:21:53.520Z,99716.22
2023-04-09T16:24:21.762Z,99715.09
2023-04-09T16:26:51.822Z,99724.28
2023-04-09T16:29:19.862Z,99716.72
2023-04-09T16:31:48.304Z,99716.69
2023-04-09T16:34:16.629Z,99710.69
2023-04-09T16:36:45.024Z,99712.25
2023-04-09T16:39:13.284Z,99718.44
2023-04-09T16:41:41.703Z,99704.34
2023-04-09T16:44:12.215Z,99700.28
2023-04-09T16:46:40.416Z,99711.78
2023-04-09T16:49:08.561Z,99707.56
2023-04-09T16:51:36.924Z,99710.91
2023-04-09T16:54:05.508Z,99705.53
2023-04-09T16:56:33.785Z,99715.44
2023-04-09T16:59:02.023Z,99711.38
2023-04-09T17:01:32.018Z,99714.31
2023-04-09T17:04:02.553Z,99705.59
2023-04-09T17:06:31.127Z,99711.44
2023-04-09T17:08:59.290Z,99696.84
2023-04-09T17:11:27.341Z,99696.69
2023-04-09T17:13:55.620Z,99698.22
2023-04-09T17:16:24.757Z,99694.72
2023-04-09T17:18:55.049Z,99703.09
2023-04-09T17:21:23.631Z,99711.25
2023-04-09T17:23:52.086Z,99706.22
2023-04-09T17:26:21.169Z,99704.66
2023-04-09T17:28:49.571Z,99702.28
2023-04-09T17:31:17.999Z,99694.66
2023-04-09T17:33:48.221Z,99699.09
2023-04-09T17:36:20.417Z,99698.81
2023-04-09T17:38:52.328Z,99702.81
2023-04-09T17:41:20.664Z,99709.00
2023-04-09T17:43:48.917Z,99707.16
2023-04-09T17:46:17.411Z,99711.47
2023-04-09T17:48:46.219Z,99717.88
2023-04-09T17:51:16.499Z,99715.75
2023-04-09T17:53:46.240Z,99717.13
2023-04-09T17:56:17.306Z,99717.69
2023-04-09T17:58:54.468Z,99721.06
2023-04-09T18:01:25.991Z,99729.66
2023-04-09T18:03:54.298Z,99725.88
2023-04-09T18:06:22.856Z,99730.75
2023-04-09T18:08:53.581Z,99714.56
2023-04-09T18:11:23.163Z,99721.47
2023-04-09T18:13:51.975Z,99725.00
2023-04-09T18:16:23.455Z,99727.91
2023-04-09T18:18:52.467Z,99733.22
2023-04-09T18:21:22.184Z,99735.31
2023-04-09T18:23:50.291Z,99738.28
2023-04-09T18:26:20.105Z,99741.66
2023-04-09T18:28:48.469Z,99737.13
2023-04-09T18:31:17.136Z,99737.84
2023-04-09T18:33:45.534Z,99740.06
2023-04-09T18:36:14.069Z,99737.63
2023-04-09T18:38:42.253Z,99750.69
2023-04-09T18:41:11.503Z,99741.50
2023-04-09T18:43:41.223Z,99743.75
2023-04-09T18:46:10.760Z,99740.59
2023-04-09T18:48:38.842Z,99740.38
2023-04-09T18:51:07.409Z,99742.50
2023-04-09T18:53:35.743Z,99750.63
2023-04-09T18:56:03.795Z,99740.69
2023-04-09T18:58:33.857Z,99741.94
2023-04-09T19:01:11.160Z,99744.41
2023-04-09T19:03:40.565Z,99742.69
2023-04-09T19:06:14.538Z,99727.25
2023-04-09T19:08:43.316Z,99738.66
2023-04-09T19:11:11.619Z,99735.16
2023-04-09T19:13:40.680Z,99742.53
2023-04-09T19:16:10.981Z,99744.53
2023-04-09T19:18:39.111Z,99740.00
2023-04-09T19:21:08.829Z,99748.50
2023-04-09T19:23:37.046Z,99748.81
2023-04-09T19:26:05.638Z,99741.44
2023-04-09T19:28:33.851Z,99755.38
2023-04-09T19:31:03.417Z,99744.94
2023-04-09T19:33:33.789Z,99749.03
2023-04-09T19:36:01.939Z,99746.22
2023-04-09T19:38:30.032Z,99753.28
2023-04-09T19:40:57.978Z,99754.34
2023-04-09T19:43:26.150Z,99748.97
2023-04-09T19:45:54.370Z,99748.53
2023-04-09T19:48:22.372Z,99744.50
2023-04-09T19:50:52.692Z,99745.13
2023-04-09T19:53:20.786Z,99744.06
2023-04-09T19:55:49.833Z,99739.13
2023-04-09T19:58:18.475Z,99732.97
2023-04-09T20:00:46.896Z,99736.97
2023-04-09T20:03:16.056Z,99733.19
2023-04-09T20:05:44.233Z,99745.19
2023-04-09T20:08:15.945Z,99744.81
2023-04-09T20:10:46.599Z,99753.38
2023-04-09T20:13:14.924Z,99753.09
2023-04-09T20:15:44.034Z,99755.94
2023-04-09T20:18:12.405Z,99755.94
2023-04-09T20:20:40.757Z,99747.63
2023-04-09T20:23:09.079Z,99750.19
2023-04-09T20:25:38.595Z,99758.16
2023-04-09T20:28:06.774Z,99757.56
2023-04-09T20:30:34.972Z,99758.41
2023-04-09T20:33:03.401Z,99753.78
2023-04-09T20:35:35.517Z,99754.78
2023-04-09T20:38:03.956Z,99749.59
2023-04-09T20:40:33.325Z,99755.94
2023-04-09T20:43:03.144Z,99754.13
2023-04-09T20:45:31.840Z,99757.03
2023-04-09T20:48:00.463Z,99751.50
2023-04-09T20:50:28.977Z,99751.50
2023-04-09T20:52:58.815Z,99750.66
2023-04-09T20:55:27.297Z,99750.28
2023-04-09T20:57:56.824Z,99747.25
2023-04-09T21:00:27.497Z,99749.13
2023-04-09T21:02:56.107Z,99750.56
2023-04-09T21:05:24.565Z,99745.34
2023-04-09T21:07:53.207Z,99737.25
2023-04-09T21:10:21.842Z,99745.44
2023-04-09T21:12:50.211Z,99744.03
2023-04-09T21:15:18.699Z,99751.47
2023-04-09T21:17:48.386Z,99740.97
2023-04-09T21:20:16.983Z,99744.44
2023-04-09T21:22:45.794Z,99736.28
2023-04-09T21:25:15.364Z,99741.00
2023-04-09T21:27:43.772Z,99731.16
2023-04-09T21:30:13.077Z,99738.59
2023-04-09T21:32:41.287Z,99735.94
2023-04-09T21:35:11.130Z,99734.31
2023-04-09T21:37:39.370Z,99734.44
2023-04-09T21:40:09.545Z,99726.16
2023-04-09T21:42:37.603Z,99732.66
2023-04-09T21:45:06.724Z,99726.28
2023-04-09T21:47:34.909Z,99730.91
2023-04-09T21:50:03.688Z,99726.81
2023-04-09T21:52:34.538Z,99725.34
2023-04-09T21:55:02.595Z,99732.84
2023-04-09T21:57:31.106Z,99735.31
2023-04-09T22:00:00.476Z,99727.16
2023-04-09T22:02:29.029Z,99732.69
2023-04-09T22:04:57.643Z,99733.91
2023-04-09T22:07:27.201Z,99731.34
2023-04-09T22:09:58.869Z,99733.13
2023-04-09T22:12:27.063Z,99731.06
2023-04-09T22:14:55.450Z,99729.06
2023-04-09T22:17:23.681Z,99725.19
2023-04-09T22:19:52.223Z,99726.06
2023-04-09T22:22:20.541Z,99732.19
2023-04-09T22:24:48.771Z,99734.66
2023-04-09T22:27:18.504Z,99728.63
2023-04-09T22:29:46.818Z,99730.72
2023-04-09T22:32:15.190Z,99729.97
2023-04-09T22:34:44.150Z,99731.88
2023-04-09T22:37:12.358Z,99731.19
2023-04-09T22:39:40.823Z,99735.69
2023-04-09T22:42:10.436Z,99729.72
2023-04-09T22:44:41.755Z,99725.72
2023-04-09T22:47:09.834Z,99722.16
2023-04-09T22:49:38.803Z,99721.22
2023-04-09T22:52:07.052Z,99721.81
2023-04-09T22:54:35.757Z,99720.47
2023-04-09T22:57:03.781Z,99713.38
2023-04-09T22:59:40.307Z,99718.09
2023-04-09T23:02:10.815Z,99726.34
2023-04-09T23:04:40.313Z,99719.38
2023-04-09T23:07:09.522Z,99726.44
2023-04-09T23:09:37.720Z,99723.78
2023-04-09T23:12:06.195Z,99725.28
2023-04-09T23:14:34.301Z,99714.41
2023-04-09T23:17:02.679Z,99724.63
2023-04-09T23:19:33.983Z,99726.28
2023-04-09T23:22:02.837Z,99724.63
2023-04-09T23:24:31.268Z,99722.00
2023-04-09T23:27:00.116Z,99719.69
2023-04-09T23:29:28.348Z,99717.06
2023-04-09T23:31:56.360Z,99720.97
2023-04-09T23:34:24.776Z,99727.03
2023-04-09T23:36:54.369Z,99721.06
2023-04-09T23:39:22.644Z,99724.03
2023-04-09T23:41:50.978Z,99724.78
2023-04-09T23:44:20.282Z,99727.94
2023-04-09T23:46:48.471Z,99728.53
2023-04-09T23:49:17.089Z,99723.47
2023-04-09T23:51:45.339Z,99727.91
2023-04-09T23:54:14.933Z,99723.91
2023-04-09T23:56:43.063Z,99720.66
2023-04-09T23:59:11.324Z,99727.63
